Time;durP1;ratioP1;P1;durP2;ratioP2;P2;SDS_P1;SDS_P2;PMS_P1;PMS_P2;Temp;Humidity;BMP_temperature;BMP_pressure;BME280_temperature;BME280_humidity;BME280_pressure;Samples;Min_cycle;Max_cycle;Signal;HPM_P1;HPM_P2
2022/07/05 00:01:10;;;;;;;1.60;1.42;;;;;;;;;;5089646;28;20039;-62
2022/07/05 00:03:36;;;;;;;2.50;1.73;;;;;;;;;;5082551;28;20036;-62
2022/07/05 00:06:02;;;;;;;2.38;1.65;;;;;;;;;;5085597;28;20059;-62
2022/07/05 00:08:28;;;;;;;4.25;1.73;;;;;;;;;;5086034;28;20042;-62
2022/07/05 00:10:54;;;;;;;2.15;1.95;;;;;;;;;;5087202;28;20051;-62
2022/07/05 00:13:20;;;;;;;2.47;2.28;;;;;;;;;;5085474;28;20036;-62
2022/07/05 00:15:46;;;;;;;2.45;2.25;;;;;;;;;;5086436;28;20669;-62
2022/07/05 00:18:12;;;;;;;1.35;1.23;;;;;;;;;;5088023;28;20032;-62
2022/07/05 00:20:38;;;;;;;2.90;1.80;;;;;;;;;;5083475;28;20036;-62
2022/07/05 00:23:04;;;;;;;2.15;1.95;;;;;;;;;;5085311;28;20490;-62
2022/07/05 00:25:30;;;;;;;2.10;1.90;;;;;;;;;;5086671;28;20044;-62
2022/07/05 00:27:56;;;;;;;2.28;1.88;;;;;;;;;;5080788;28;20094;-62
2022/07/05 00:30:22;;;;;;;2.40;2.00;;;;;;;;;;5085964;28;20036;-62
2022/07/05 00:32:48;;;;;;;4.07;2.15;;;;;;;;;;5082075;28;20071;-62
2022/07/05 00:35:14;;;;;;;1.95;1.60;;;;;;;;;;5088283;28;20060;-62
2022/07/05 00:37:40;;;;;;;2.42;1.90;;;;;;;;;;5089249;28;20028;-62
2022/07/05 00:40:07;;;;;;;2.22;1.73;;;;;;;;;;5086299;28;20046;-62
2022/07/05 00:42:34;;;;;;;2.17;1.95;;;;;;;;;;5084914;28;20074;-62
2022/07/05 00:45:00;;;;;;;2.40;2.13;;;;;;;;;;5089550;28;20056;-62
2022/07/05 00:47:26;;;;;;;3.15;2.30;;;;;;;;;;5084296;28;20090;-62
2022/07/05 00:49:52;;;;;;;2.72;2.45;;;;;;;;;;5081961;28;20526;-62
2022/07/05 00:52:18;;;;;;;5.50;2.33;;;;;;;;;;5085377;28;20046;-61
2022/07/05 00:54:44;;;;;;;2.90;2.35;;;;;;;;;;5087539;28;20281;-62
2022/07/05 00:57:10;;;;;;;2.55;2.08;;;;;;;;;;5083649;28;20040;-62
2022/07/05 00:59:36;;;;;;;4.35;2.42;;;;;;;;;;5076409;28;20127;-62
2022/07/05 01:02:02;;;;;;;2.83;1.92;;;;;;;;;;5063554;28;20051;-62
2022/07/05 01:04:28;;;;;;;3.88;2.10;;;;;;;;;;5080157;28;20048;-62
2022/07/05 01:06:54;;;;;;;2.22;2.03;;;;;;;;;;5083839;28;20043;-62
2022/07/05 01:09:21;;;;;;;2.08;1.80;;;;;;;;;;5086309;28;20044;-61
2022/07/05 01:11:48;;;;;;;1.88;1.48;;;;;;;;;;5085532;28;20705;-62
2022/07/05 01:14:16;;;;;;;3.22;2.22;;;;;;;;;;5085448;28;20128;-62
2022/07/05 01:16:42;;;;;;;3.10;2.60;;;;;;;;;;5085401;28;20050;-61
2022/07/05 01:19:10;;;;;;;4.65;2.70;;;;;;;;;;5080676;28;20035;-62
2022/07/05 01:21:39;;;;;;;3.78;2.90;;;;;;;;;;5063385;28;21292;-62
2022/07/05 01:24:05;;;;;;;4.60;2.72;;;;;;;;;;5086438;28;20078;-61
2022/07/05 01:26:31;;;;;;;1.17;1.08;;;;;;;;;;5083660;28;20040;-62
2022/07/05 01:28:57;;;;;;;1.88;1.70;;;;;;;;;;5086205;28;20051;-62
2022/07/05 01:31:24;;;;;;;1.40;1.17;;;;;;;;;;5084213;28;20115;-62
2022/07/05 01:33:50;;;;;;;1.40;1.30;;;;;;;;;;5084694;28;20036;-62
2022/07/05 01:36:16;;;;;;;2.88;1.40;;;;;;;;;;5085423;28;20036;-61
2022/07/05 01:38:42;;;;;;;2.78;1.95;;;;;;;;;;5082889;28;20047;-62
2022/07/05 01:41:11;;;;;;;2.70;2.00;;;;;;;;;;5067440;28;20440;-62
2022/07/05 01:43:37;;;;;;;2.72;1.88;;;;;;;;;;5086791;28;20497;-61
2022/07/05 01:46:05;;;;;;;3.45;2.33;;;;;;;;;;5085389;28;20092;-62
2022/07/05 01:48:33;;;;;;;2.53;2.33;;;;;;;;;;5090256;28;20055;-61
2022/07/05 01:51:04;;;;;;;2.80;2.40;;;;;;;;;;5088086;28;20544;-61
2022/07/05 01:53:31;;;;;;;2.95;2.30;;;;;;;;;;5086123;28;20043;-62
2022/07/05 01:55:58;;;;;;;2.30;2.10;;;;;;;;;;5091391;28;20071;-61
2022/07/05 01:58:25;;;;;;;2.20;1.27;;;;;;;;;;5088245;28;20099;-61
2022/07/05 02:00:53;;;;;;;1.40;1.23;;;;;;;;;;5088563;28;20044;-61
2022/07/05 02:03:19;;;;;;;2.85;2.58;;;;;;;;;;5070789;28;20052;-61
2022/07/05 02:05:45;;;;;;;3.35;2.47;;;;;;;;;;5092901;28;20085;-62
2022/07/05 02:08:12;;;;;;;4.72;2.70;;;;;;;;;;5084593;28;20044;-61
2022/07/05 02:10:39;;;;;;;3.17;2.60;;;;;;;;;;5090385;28;20394;-61
2022/07/05 02:13:05;;;;;;;5.47;3.08;;;;;;;;;;5091187;28;20397;-61
2022/07/05 02:15:32;;;;;;;2.90;2.60;;;;;;;;;;5085323;28;20044;-61
2022/07/05 02:17:58;;;;;;;3.13;2.70;;;;;;;;;;5082472;28;20078;-62
2022/07/05 02:20:24;;;;;;;3.03;2.40;;;;;;;;;;5089031;28;20055;-62
2022/07/05 02:22:50;;;;;;;3.08;2.65;;;;;;;;;;5089815;28;20114;-62
2022/07/05 02:25:16;;;;;;;3.42;3.00;;;;;;;;;;5088416;28;20069;-62
2022/07/05 02:27:42;;;;;;;4.03;3.03;;;;;;;;;;5089717;28;20032;-62
2022/07/05 02:30:08;;;;;;;3.53;2.80;;;;;;;;;;5086726;28;20762;-62
2022/07/05 02:32:34;;;;;;;2.80;2.47;;;;;;;;;;5090224;28;20032;-62
2022/07/05 02:35:00;;;;;;;4.05;2.92;;;;;;;;;;5087965;28;20028;-62
2022/07/05 02:37:27;;;;;;;3.60;2.88;;;;;;;;;;5089344;28;20042;-62
2022/07/05 02:39:54;;;;;;;5.75;3.00;;;;;;;;;;5088423;28;20039;-62
2022/07/05 02:42:20;;;;;;;3.33;3.03;;;;;;;;;;5087491;28;20083;-62
2022/07/05 02:44:47;;;;;;;3.58;2.38;;;;;;;;;;5086302;28;20078;-62
2022/07/05 02:47:13;;;;;;;4.18;3.50;;;;;;;;;;5087059;28;20032;-62
2022/07/05 02:49:39;;;;;;;2.70;1.92;;;;;;;;;;5089467;28;20043;-62
2022/07/05 02:52:05;;;;;;;4.55;3.00;;;;;;;;;;5083309;28;20036;-62
2022/07/05 02:54:31;;;;;;;3.28;2.97;;;;;;;;;;5086114;28;20041;-62
2022/07/05 02:56:57;;;;;;;3.58;2.75;;;;;;;;;;5090722;28;20047;-62
2022/07/05 02:59:23;;;;;;;6.80;3.70;;;;;;;;;;5092923;28;20039;-62
2022/07/05 03:01:49;;;;;;;7.13;3.83;;;;;;;;;;5091175;28;20047;-62
2022/07/05 03:04:15;;;;;;;7.13;3.70;;;;;;;;;;5093065;28;20111;-62
2022/07/05 03:06:41;;;;;;;7.43;3.50;;;;;;;;;;5088071;28;20032;-62
2022/07/05 03:09:07;;;;;;;5.25;3.65;;;;;;;;;;5082520;28;20401;-62
2022/07/05 03:11:33;;;;;;;4.57;3.72;;;;;;;;;;5088461;28;20035;-62
2022/07/05 03:13:59;;;;;;;6.55;4.20;;;;;;;;;;5072433;28;20122;-62
2022/07/05 03:16:25;;;;;;;5.10;4.13;;;;;;;;;;5091145;28;20040;-62
2022/07/05 03:18:51;;;;;;;5.20;4.20;;;;;;;;;;5090509;28;20123;-62
2022/07/05 03:21:17;;;;;;;5.35;3.47;;;;;;;;;;5091355;28;20040;-62
2022/07/05 03:23:43;;;;;;;3.55;3.25;;;;;;;;;;5088450;28;20031;-62
2022/07/05 03:26:09;;;;;;;3.30;3.00;;;;;;;;;;5088977;28;20065;-62
2022/07/05 03:28:35;;;;;;;2.13;1.92;;;;;;;;;;5085745;28;20036;-62
2022/07/05 03:31:02;;;;;;;3.55;2.22;;;;;;;;;;5087739;28;20571;-62
2022/07/05 03:33:28;;;;;;;2.30;2.10;;;;;;;;;;5088994;28;20043;-62
2022/07/05 03:35:54;;;;;;;3.60;2.70;;;;;;;;;;5090697;28;20037;-62
2022/07/05 03:38:20;;;;;;;3.70;3.40;;;;;;;;;;5092449;28;20116;-62
2022/07/05 03:40:46;;;;;;;5.65;4.32;;;;;;;;;;5091157;28;20539;-63
2022/07/05 03:43:12;;;;;;;7.03;4.95;;;;;;;;;;5086935;28;20079;-62
2022/07/05 03:45:38;;;;;;;7.53;4.50;;;;;;;;;;5092112;28;20076;-62
2022/07/05 03:48:04;;;;;;;5.68;4.40;;;;;;;;;;5092462;28;20043;-62
2022/07/05 03:50:30;;;;;;;4.28;3.80;;;;;;;;;;5071877;28;20461;-62
2022/07/05 03:52:56;;;;;;;5.95;4.53;;;;;;;;;;5086663;28;20163;-62
2022/07/05 03:55:22;;;;;;;6.40;4.72;;;;;;;;;;5090725;28;20046;-62
2022/07/05 03:57:48;;;;;;;7.38;5.28;;;;;;;;;;5092155;28;20397;-62
2022/07/05 04:00:15;;;;;;;6.43;5.05;;;;;;;;;;5091076;28;20409;-62
2022/07/05 04:02:41;;;;;;;5.53;4.90;;;;;;;;;;5088238;28;20077;-62
2022/07/05 04:05:07;;;;;;;6.00;5.28;;;;;;;;;;5087388;28;20094;-62
2022/07/05 04:07:33;;;;;;;7.78;5.68;;;;;;;;;;5087332;28;20059;-62
2022/07/05 04:10:00;;;;;;;5.00;4.00;;;;;;;;;;5071899;28;20044;-62
2022/07/05 04:12:26;;;;;;;4.32;3.92;;;;;;;;;;5086732;28;20043;-62
2022/07/05 04:14:52;;;;;;;5.70;3.88;;;;;;;;;;5080288;28;20520;-62
2022/07/05 04:17:18;;;;;;;4.88;3.78;;;;;;;;;;5086840;28;20044;-61
2022/07/05 04:19:44;;;;;;;4.30;3.90;;;;;;;;;;5081970;28;20649;-62
2022/07/05 04:22:10;;;;;;;5.45;3.78;;;;;;;;;;5084101;28;20032;-62
2022/07/05 04:25:16;;;;;;;5.30;3.90;;;;;;;;;;5086017;28;20111;-62
2022/07/05 04:27:22;;;;;;;5.30;3.97;;;;;;;;;;5080692;28;20047;-62
2022/07/05 04:29:48;;;;;;;8.02;5.72;;;;;;;;;;5086777;28;20040;-62
2022/07/05 04:32:14;;;;;;;7.80;6.60;;;;;;;;;;5084914;28;20034;-62
2022/07/05 04:34:40;;;;;;;7.80;7.00;;;;;;;;;;5085093;28;20497;-62
2022/07/05 04:37:06;;;;;;;5.93;5.32;;;;;;;;;;5087581;28;20028;-62
2022/07/05 04:39:32;;;;;;;7.45;5.90;;;;;;;;;;5098415;22;20398;-63
2022/07/05 04:41:58;;;;;;;8.23;6.20;;;;;;;;;;5086467;28;20043;-63
2022/07/05 04:44:24;;;;;;;7.70;6.90;;;;;;;;;;5082535;28;20040;-63
2022/07/05 04:46:50;;;;;;;10.85;8.05;;;;;;;;;;5087606;28;20078;-63
2022/07/05 04:49:16;;;;;;;8.65;7.75;;;;;;;;;;5080265;28;20052;-63
2022/07/05 04:51:42;;;;;;;12.02;7.80;;;;;;;;;;5082477;28;20429;-63
2022/07/05 04:54:08;;;;;;;10.27;8.18;;;;;;;;;;5083560;28;20056;-63
2022/07/05 04:56:34;;;;;;;10.95;8.30;;;;;;;;;;5085870;28;20054;-63
2022/07/05 04:59:00;;;;;;;11.35;8.48;;;;;;;;;;5083804;28;20032;-63
2022/07/05 05:01:26;;;;;;;10.73;7.95;;;;;;;;;;5080047;28;20040;-63
2022/07/05 05:03:52;;;;;;;10.57;7.88;;;;;;;;;;5083525;28;20517;-63
2022/07/05 05:06:18;;;;;;;10.80;8.73;;;;;;;;;;5082940;28;20040;-63
2022/07/05 05:08:44;;;;;;;10.60;8.55;;;;;;;;;;5084403;28;20035;-63
2022/07/05 05:11:10;;;;;;;12.20;9.05;;;;;;;;;;5088348;28;20044;-63
2022/07/05 05:13:36;;;;;;;10.50;8.23;;;;;;;;;;5081699;28;20109;-63
2022/07/05 05:16:03;;;;;;;10.43;8.48;;;;;;;;;;5089395;28;20511;-64
2022/07/05 05:18:29;;;;;;;12.35;8.15;;;;;;;;;;5083199;28;20039;-64
2022/07/05 05:20:55;;;;;;;10.60;7.72;;;;;;;;;;5084641;28;20071;-63
2022/07/05 05:23:24;;;;;;;13.23;8.07;;;;;;;;;;5081433;28;20043;-63
2022/07/05 05:25:50;;;;;;;9.65;6.70;;;;;;;;;;5094938;28;20116;-63
2022/07/05 05:28:16;;;;;;;10.25;7.45;;;;;;;;;;5094637;28;20047;-63
2022/07/05 05:30:42;;;;;;;9.75;7.40;;;;;;;;;;5088663;28;20044;-63
2022/07/05 05:33:08;;;;;;;11.55;7.63;;;;;;;;;;5083792;28;20066;-64
2022/07/05 05:35:34;;;;;;;9.05;7.47;;;;;;;;;;5087292;28;20078;-63
2022/07/05 05:38:00;;;;;;;9.55;6.97;;;;;;;;;;5086426;28;20367;-63
2022/07/05 05:40:26;;;;;;;10.82;8.02;;;;;;;;;;5087225;28;20436;-64
2022/07/05 05:42:53;;;;;;;8.25;6.85;;;;;;;;;;5081727;28;20398;-64
2022/07/05 05:45:19;;;;;;;9.43;7.22;;;;;;;;;;5080304;28;20539;-64
2022/07/05 05:47:51;;;;;;;8.95;7.28;;;;;;;;;;5077816;28;20432;-63
2022/07/05 05:50:20;;;;;;;8.35;7.03;;;;;;;;;;5084013;28;20498;-64
2022/07/05 05:52:46;;;;;;;9.02;6.88;;;;;;;;;;5085260;28;20421;-63
2022/07/05 05:55:12;;;;;;;9.95;6.85;;;;;;;;;;5087218;28;20036;-63
2022/07/05 05:57:38;;;;;;;9.18;7.18;;;;;;;;;;5084916;28;20071;-63
2022/07/05 06:00:05;;;;;;;7.82;6.40;;;;;;;;;;5082498;28;20501;-63
2022/07/05 06:02:31;;;;;;;8.98;6.18;;;;;;;;;;5086672;28;20074;-63
2022/07/05 06:04:57;;;;;;;8.65;6.35;;;;;;;;;;5090803;28;20047;-63
2022/07/05 06:07:23;;;;;;;8.02;6.10;;;;;;;;;;5085569;28;20036;-64
2022/07/05 06:09:49;;;;;;;10.52;6.53;;;;;;;;;;5084743;28;20082;-64
2022/07/05 06:12:15;;;;;;;9.15;6.13;;;;;;;;;;5090219;28;20044;-63
2022/07/05 06:14:41;;;;;;;8.27;5.90;;;;;;;;;;5086335;28;20429;-63
2022/07/05 06:17:07;;;;;;;8.82;5.78;;;;;;;;;;5089050;28;20039;-64
2022/07/05 06:19:33;;;;;;;8.30;5.70;;;;;;;;;;5084507;28;20122;-63
2022/07/05 06:21:59;;;;;;;8.77;5.78;;;;;;;;;;5086553;28;20467;-63
2022/07/05 06:24:25;;;;;;;7.35;5.03;;;;;;;;;;5085843;28;20447;-63
2022/07/05 06:26:51;;;;;;;5.53;4.88;;;;;;;;;;5086921;28;20036;-63
2022/07/05 06:29:17;;;;;;;6.55;4.88;;;;;;;;;;5088140;28;20073;-64
2022/07/05 06:31:43;;;;;;;8.10;4.75;;;;;;;;;;5085516;28;20036;-63
2022/07/05 06:34:09;;;;;;;6.05;4.80;;;;;;;;;;5090494;28;20063;-63
2022/07/05 06:36:35;;;;;;;6.68;4.90;;;;;;;;;;5085918;28;20766;-63
2022/07/05 06:39:01;;;;;;;8.13;4.95;;;;;;;;;;5090894;28;20032;-63
2022/07/05 06:41:27;;;;;;;8.38;4.53;;;;;;;;;;5083566;28;20047;-63
2022/07/05 06:43:53;;;;;;;4.97;4.25;;;;;;;;;;5085931;28;20056;-64
2022/07/05 06:46:19;;;;;;;5.53;4.55;;;;;;;;;;5081212;28;20075;-63
2022/07/05 06:48:45;;;;;;;8.35;4.70;;;;;;;;;;5085414;28;20124;-63
2022/07/05 06:51:11;;;;;;;8.15;4.47;;;;;;;;;;5080613;28;20032;-64
2022/07/05 06:53:37;;;;;;;6.40;3.80;;;;;;;;;;5078178;28;20118;-63
2022/07/05 06:56:03;;;;;;;6.45;2.90;;;;;;;;;;5081033;28;20039;-63
2022/07/05 06:58:29;;;;;;;4.82;2.67;;;;;;;;;;5089698;28;20036;-63
2022/07/05 07:00:55;;;;;;;4.57;2.50;;;;;;;;;;5084429;28;20523;-63
2022/07/05 07:03:21;;;;;;;7.32;3.47;;;;;;;;;;5087548;28;20051;-64
2022/07/05 07:05:47;;;;;;;4.78;3.13;;;;;;;;;;5079299;28;20044;-63
2022/07/05 07:10:58;;;;;;;6.35;2.60;;;;;;;;;;5084905;28;20127;-63
2022/07/05 07:13:24;;;;;;;2.70;2.40;;;;;;;;;;5077549;28;20115;-63
2022/07/05 07:15:50;;;;;;;5.00;2.50;;;;;;;;;;5082789;28;20387;-63
2022/07/05 07:18:16;;;;;;;5.82;2.05;;;;;;;;;;5086793;28;20041;-63
2022/07/05 07:20:42;;;;;;;3.80;1.70;;;;;;;;;;5077980;28;20059;-64
2022/07/05 07:23:08;;;;;;;4.68;2.05;;;;;;;;;;5081025;28;20055;-63
2022/07/05 07:25:34;;;;;;;6.25;1.98;;;;;;;;;;5085847;28;20035;-64
2022/07/05 07:28:00;;;;;;;4.25;1.90;;;;;;;;;;5082566;28;20067;-64
2022/07/05 07:30:28;;;;;;;5.30;1.60;;;;;;;;;;5082087;28;20116;-64
2022/07/05 07:32:54;;;;;;;3.10;1.60;;;;;;;;;;5087306;28;20027;-64
2022/07/05 07:35:20;;;;;;;4.72;1.67;;;;;;;;;;5078323;28;20531;-63
2022/07/05 07:37:46;;;;;;;4.43;2.05;;;;;;;;;;5080796;28;20036;-63
2022/07/05 07:40:13;;;;;;;5.85;2.15;;;;;;;;;;5081588;28;20028;-64
2022/07/05 07:42:39;;;;;;;6.55;2.00;;;;;;;;;;5087162;28;20132;-64
2022/07/05 07:45:05;;;;;;;5.65;1.92;;;;;;;;;;5082003;28;20048;-65
2022/07/05 07:47:31;;;;;;;3.88;1.50;;;;;;;;;;5073475;28;20047;-65
2022/07/05 07:49:58;;;;;;;4.68;1.55;;;;;;;;;;5070572;28;20040;-65
2022/07/05 07:52:24;;;;;;;2.28;1.50;;;;;;;;;;5073296;28;20042;-65
2022/07/05 07:54:50;;;;;;;2.92;1.30;;;;;;;;;;5103556;28;20044;-65
2022/07/05 07:57:16;;;;;;;4.07;1.70;;;;;;;;;;5089838;28;20044;-65
2022/07/05 07:59:42;;;;;;;4.68;1.70;;;;;;;;;;5080102;28;20122;-65
2022/07/05 08:02:08;;;;;;;3.03;1.33;;;;;;;;;;5085893;28;20127;-65
2022/07/05 08:04:34;;;;;;;4.53;1.40;;;;;;;;;;5081713;28;20496;-65
2022/07/05 08:07:00;;;;;;;3.13;1.40;;;;;;;;;;5088455;28;20032;-65
2022/07/05 08:09:26;;;;;;;2.45;1.13;;;;;;;;;;5088286;28;20048;-65
2022/07/05 08:11:52;;;;;;;3.38;1.10;;;;;;;;;;5080668;28;20058;-65
2022/07/05 08:14:19;;;;;;;1.95;1.25;;;;;;;;;;5087658;28;20043;-65
2022/07/05 08:16:47;;;;;;;5.35;1.27;;;;;;;;;;5081541;28;20631;-65
2022/07/05 08:21:57;;;;;;;2.88;1.02;;;;;;;;;;5081351;28;20436;-64
2022/07/05 08:24:23;;;;;;;2.85;1.33;;;;;;;;;;5079317;28;20094;-64
2022/07/05 08:26:49;;;;;;;3.08;1.20;;;;;;;;;;5089680;28;20081;-64
2022/07/05 08:29:15;;;;;;;3.42;1.23;;;;;;;;;;5086706;28;20032;-65
2022/07/05 08:31:41;;;;;;;3.72;1.20;;;;;;;;;;5088482;28;20039;-64
2022/07/05 08:34:08;;;;;;;2.80;1.00;;;;;;;;;;5088332;28;20032;-64
2022/07/05 08:36:34;;;;;;;2.10;1.13;;;;;;;;;;5079537;28;20107;-64
2022/07/05 08:39:00;;;;;;;1.98;0.90;;;;;;;;;;5081426;28;20035;-65
2022/07/05 08:41:26;;;;;;;2.35;1.13;;;;;;;;;;5088286;28;20035;-64
2022/07/05 08:43:52;;;;;;;2.95;0.98;;;;;;;;;;5086601;28;20115;-64
2022/07/05 08:46:19;;;;;;;3.70;1.20;;;;;;;;;;5085179;28;20032;-64
2022/07/05 08:48:48;;;;;;;2.83;0.88;;;;;;;;;;5081769;28;20093;-65
2022/07/05 08:51:16;;;;;;;3.45;1.05;;;;;;;;;;5085147;28;20729;-64
2022/07/05 08:53:43;;;;;;;2.40;0.98;;;;;;;;;;5089962;28;20036;-64
2022/07/05 08:56:10;;;;;;;2.25;1.30;;;;;;;;;;5089306;28;20036;-64
2022/07/05 08:58:36;;;;;;;3.22;1.08;;;;;;;;;;5087953;28;20172;-64
2022/07/05 09:01:03;;;;;;;3.20;1.00;;;;;;;;;;5084762;28;20119;-65
2022/07/05 09:03:33;;;;;;;1.95;0.80;;;;;;;;;;5085629;28;20047;-64
2022/07/05 09:06:01;;;;;;;2.30;0.95;;;;;;;;;;5091838;28;20047;-64
2022/07/05 09:08:28;;;;;;;3.30;0.90;;;;;;;;;;5065680;28;20055;-64
2022/07/05 09:10:54;;;;;;;2.17;0.90;;;;;;;;;;5089763;28;20044;-64
2022/07/05 09:13:20;;;;;;;3.95;0.90;;;;;;;;;;5086972;28;20036;-64
2022/07/05 09:15:46;;;;;;;3.58;0.95;;;;;;;;;;5089003;28;20043;-64
2022/07/05 09:18:12;;;;;;;3.28;1.00;;;;;;;;;;5085200;28;20040;-65
2022/07/05 09:20:38;;;;;;;2.38;0.93;;;;;;;;;;5084095;28;20093;-65
2022/07/05 09:23:04;;;;;;;3.38;1.10;;;;;;;;;;5085281;28;20123;-64
2022/07/05 09:25:31;;;;;;;1.70;0.77;;;;;;;;;;5083572;28;20047;-64
2022/07/05 09:27:59;;;;;;;2.13;1.00;;;;;;;;;;5087021;28;20047;-65
2022/07/05 09:30:51;;;;;;;4.95;1.00;;;;;;;;;;5088890;28;20168;-65
2022/07/05 09:33:17;;;;;;;4.00;1.20;;;;;;;;;;5085617;28;20044;-64
2022/07/05 09:36:01;;;;;;;3.30;1.00;;;;;;;;;;5092263;28;20400;-65
2022/07/05 09:38:59;;;;;;;2.97;0.95;;;;;;;;;;5087584;28;20462;-64
2022/07/05 09:41:26;;;;;;;2.38;0.90;;;;;;;;;;5065863;28;20510;-64
2022/07/05 09:43:52;;;;;;;2.67;0.88;;;;;;;;;;5082084;28;20059;-64
2022/07/05 09:46:29;;;;;;;1.95;0.90;;;;;;;;;;5086152;28;20174;-64
2022/07/05 09:48:55;;;;;;;4.85;1.13;;;;;;;;;;5097988;28;20374;-64
2022/07/05 09:51:21;;;;;;;1.88;0.80;;;;;;;;;;5081625;28;20051;-65
2022/07/05 09:53:47;;;;;;;1.85;0.80;;;;;;;;;;5088653;28;20036;-64
2022/07/05 09:56:17;;;;;;;2.45;0.75;;;;;;;;;;5084366;28;20089;-64
2022/07/05 09:58:43;;;;;;;3.20;1.17;;;;;;;;;;5090262;28;20036;-64
2022/07/05 10:01:25;;;;;;;2.05;1.05;;;;;;;;;;5090086;28;20111;-64
2022/07/05 10:03:52;;;;;;;2.10;0.90;;;;;;;;;;5084698;28;20054;-64
2022/07/05 10:06:19;;;;;;;3.40;1.00;;;;;;;;;;5089030;28;20048;-64
2022/07/05 10:08:45;;;;;;;3.72;0.82;;;;;;;;;;5085822;28;20043;-64
2022/07/05 10:11:11;;;;;;;1.52;0.80;;;;;;;;;;5088036;28;20040;-64
2022/07/05 10:13:38;;;;;;;4.25;1.00;;;;;;;;;;5082708;28;20485;-64
2022/07/05 10:16:04;;;;;;;2.58;0.90;;;;;;;;;;5083591;28;20444;-65
2022/07/05 10:18:31;;;;;;;3.20;1.17;;;;;;;;;;5082250;28;20421;-65
2022/07/05 10:21:00;;;;;;;3.22;1.15;;;;;;;;;;5084446;28;20047;-64
2022/07/05 10:23:26;;;;;;;3.08;0.98;;;;;;;;;;5085583;28;20040;-65
2022/07/05 10:25:53;;;;;;;2.40;0.90;;;;;;;;;;5083662;28;20040;-65
2022/07/05 10:28:21;;;;;;;4.18;1.40;;;;;;;;;;5086105;28;20097;-65
2022/07/05 10:30:50;;;;;;;3.80;1.30;;;;;;;;;;5088377;28;20048;-64
2022/07/05 10:33:20;;;;;;;2.08;0.80;;;;;;;;;;5089340;28;20105;-64
2022/07/05 10:35:46;;;;;;;3.30;1.40;;;;;;;;;;5087666;28;20495;-64
2022/07/05 10:38:13;;;;;;;3.63;1.25;;;;;;;;;;5077889;28;20074;-65
2022/07/05 10:40:41;;;;;;;6.20;1.13;;;;;;;;;;5114964;22;20493;-65
2022/07/05 10:43:07;;;;;;;4.70;1.10;;;;;;;;;;5106174;28;20032;-65
2022/07/05 10:45:35;;;;;;;2.35;0.88;;;;;;;;;;5108139;28;20044;-65
2022/07/05 10:48:10;;;;;;;3.78;1.27;;;;;;;;;;5107905;28;20040;-65
2022/07/05 10:50:45;;;;;;;3.20;1.15;;;;;;;;;;5105559;27;20067;-64
2022/07/05 10:53:12;;;;;;;4.85;1.23;;;;;;;;;;5109735;28;20458;-64
2022/07/05 10:55:48;;;;;;;4.63;1.33;;;;;;;;;;5107603;28;20035;-64
2022/07/05 10:58:20;;;;;;;3.58;1.00;;;;;;;;;;5104512;28;20485;-64
2022/07/05 11:00:48;;;;;;;6.18;1.52;;;;;;;;;;5106288;28;20068;-64
2022/07/05 11:03:32;;;;;;;4.38;1.20;;;;;;;;;;5106507;28;20035;-64
2022/07/05 11:05:59;;;;;;;4.70;1.30;;;;;;;;;;5103382;28;20063;-64
2022/07/05 11:08:25;;;;;;;3.55;1.00;;;;;;;;;;5102583;28;20080;-65
2022/07/05 11:11:11;;;;;;;4.32;1.00;;;;;;;;;;5101536;28;20044;-64
2022/07/05 11:13:38;;;;;;;3.85;1.00;;;;;;;;;;5109636;28;20040;-64
2022/07/05 11:16:23;;;;;;;1.35;0.90;;;;;;;;;;5110953;28;20028;-64
2022/07/05 11:18:51;;;;;;;7.13;1.13;;;;;;;;;;5102944;28;20032;-64
2022/07/05 11:21:18;;;;;;;4.00;1.00;;;;;;;;;;5109955;28;20043;-64
2022/07/05 11:23:44;;;;;;;4.80;1.25;;;;;;;;;;5104977;28;20054;-64
2022/07/05 11:26:11;;;;;;;3.40;1.10;;;;;;;;;;5112207;28;20039;-64
2022/07/05 11:28:45;;;;;;;4.68;1.05;;;;;;;;;;5101640;28;20028;-64
2022/07/05 11:31:11;;;;;;;4.75;1.10;;;;;;;;;;5102272;28;20047;-64
2022/07/05 11:33:37;;;;;;;3.63;1.08;;;;;;;;;;5102271;28;20054;-64
2022/07/05 11:36:04;;;;;;;2.95;1.30;;;;;;;;;;5102519;28;20035;-64
2022/07/05 11:38:31;;;;;;;3.45;1.30;;;;;;;;;;5100947;28;20032;-65
2022/07/05 11:41:10;;;;;;;2.78;1.17;;;;;;;;;;5101230;28;20067;-64
2022/07/05 11:43:36;;;;;;;4.10;1.30;;;;;;;;;;5101562;28;20100;-64
2022/07/05 11:46:02;;;;;;;5.63;1.45;;;;;;;;;;5100157;28;20040;-64
2022/07/05 11:48:29;;;;;;;3.60;1.17;;;;;;;;;;5099589;28;20043;-64
2022/07/05 11:50:55;;;;;;;3.75;1.02;;;;;;;;;;5099259;28;20096;-65
2022/07/05 11:53:31;;;;;;;3.65;1.10;;;;;;;;;;5101561;28;20084;-64
2022/07/05 11:55:59;;;;;;;4.43;1.00;;;;;;;;;;5104375;28;20035;-64
2022/07/05 11:58:32;;;;;;;3.97;1.15;;;;;;;;;;5100337;28;20102;-62
2022/07/05 12:00:58;;;;;;;4.28;1.20;;;;;;;;;;5100368;28;20058;-62
2022/07/05 12:03:24;;;;;;;3.05;0.95;;;;;;;;;;5102906;28;20079;-62
2022/07/05 12:05:50;;;;;;;5.53;1.08;;;;;;;;;;5103685;28;20047;-61
2022/07/05 12:08:25;;;;;;;4.68;1.10;;;;;;;;;;5099154;28;20050;-62
2022/07/05 12:13:46;;;;;;;3.45;0.90;;;;;;;;;;5100825;28;20040;-62
2022/07/05 12:16:13;;;;;;;4.90;1.10;;;;;;;;;;5096280;27;20092;-63
2022/07/05 12:18:48;;;;;;;2.88;1.10;;;;;;;;;;5104595;28;20610;-63
2022/07/05 12:21:17;;;;;;;3.58;1.23;;;;;;;;;;5105698;28;20377;-63
2022/07/05 12:23:44;;;;;;;4.05;1.00;;;;;;;;;;5103511;28;20040;-63
2022/07/05 12:26:11;;;;;;;2.63;0.90;;;;;;;;;;5104011;27;20074;-63
2022/07/05 12:28:37;;;;;;;3.00;0.73;;;;;;;;;;5099920;28;20474;-64
2022/07/05 12:31:19;;;;;;;2.05;0.80;;;;;;;;;;5102718;28;20118;-64
2022/07/05 12:33:46;;;;;;;1.58;0.90;;;;;;;;;;5100155;28;20093;-64
2022/07/05 12:36:16;;;;;;;3.22;0.93;;;;;;;;;;5097748;28;20032;-64
2022/07/05 12:38:43;;;;;;;2.85;0.90;;;;;;;;;;5098840;28;20070;-64
2022/07/05 12:41:09;;;;;;;2.03;0.70;;;;;;;;;;5101998;28;20043;-64
2022/07/05 12:43:51;;;;;;;2.58;0.73;;;;;;;;;;5100379;28;20044;-63
2022/07/05 12:46:18;;;;;;;1.67;0.65;;;;;;;;;;5100411;28;20043;-63
2022/07/05 12:48:45;;;;;;;1.35;0.70;;;;;;;;;;5101445;28;20071;-64
2022/07/05 12:51:11;;;;;;;6.10;1.13;;;;;;;;;;5102330;28;20085;-63
2022/07/05 12:59:20;;;;;;;3.30;0.80;;;;;;;;;;5098418;28;20079;-63
2022/07/05 13:01:46;;;;;;;1.70;0.68;;;;;;;;;;5102650;28;20032;-63
2022/07/05 13:04:16;;;;;;;1.85;0.70;;;;;;;;;;5101477;28;20498;-63
2022/07/05 13:06:42;;;;;;;3.70;0.85;;;;;;;;;;5100786;28;20028;-63
2022/07/05 13:09:08;;;;;;;2.33;0.80;;;;;;;;;;5100611;28;20028;-63
2022/07/05 13:11:34;;;;;;;3.75;0.50;;;;;;;;;;5108089;28;20039;-64
2022/07/05 13:14:00;;;;;;;3.17;0.63;;;;;;;;;;5109159;28;20110;-64
2022/07/05 13:16:26;;;;;;;2.72;0.50;;;;;;;;;;5104974;28;20585;-64
2022/07/05 13:18:52;;;;;;;1.80;0.60;;;;;;;;;;5108314;28;20035;-64
2022/07/05 13:21:18;;;;;;;1.45;0.52;;;;;;;;;;5105917;28;20054;-64
2022/07/05 13:23:44;;;;;;;2.95;0.60;;;;;;;;;;5106445;28;20118;-65
2022/07/05 13:26:10;;;;;;;1.80;0.75;;;;;;;;;;5104732;27;20049;-65
2022/07/05 13:28:36;;;;;;;2.22;0.65;;;;;;;;;;5106066;28;20138;-65
2022/07/05 13:31:02;;;;;;;1.45;0.63;;;;;;;;;;5100597;28;20039;-65
2022/07/05 13:33:28;;;;;;;2.72;0.65;;;;;;;;;;5100489;28;20073;-65
2022/07/05 13:35:54;;;;;;;3.33;0.57;;;;;;;;;;5100638;28;20032;-65
2022/07/05 13:38:20;;;;;;;2.92;0.77;;;;;;;;;;5103059;28;20101;-65
2022/07/05 13:40:46;;;;;;;1.52;0.60;;;;;;;;;;5104165;28;20047;-65
2022/07/05 13:43:12;;;;;;;2.08;0.80;;;;;;;;;;5114931;27;20081;-65
2022/07/05 13:45:39;;;;;;;4.20;0.82;;;;;;;;;;5113157;28;20043;-65
2022/07/05 13:48:05;;;;;;;2.97;0.95;;;;;;;;;;5107386;28;20036;-65
2022/07/05 13:50:31;;;;;;;2.85;1.20;;;;;;;;;;5094041;28;20119;-66
2022/07/05 13:52:57;;;;;;;2.35;0.70;;;;;;;;;;5111134;28;20480;-66
2022/07/05 13:55:23;;;;;;;2.38;1.00;;;;;;;;;;5113655;28;20039;-66
2022/07/05 13:57:49;;;;;;;4.43;1.00;;;;;;;;;;5113880;28;20038;-65
2022/07/05 14:00:15;;;;;;;2.53;0.70;;;;;;;;;;5112018;28;20072;-66
2022/07/05 14:02:41;;;;;;;2.33;0.80;;;;;;;;;;5109306;28;20036;-66
2022/07/05 14:05:07;;;;;;;0.95;0.65;;;;;;;;;;5105248;28;20404;-65
2022/07/05 14:07:33;;;;;;;2.97;0.77;;;;;;;;;;5114306;28;20446;-65
2022/07/05 14:09:59;;;;;;;2.42;0.60;;;;;;;;;;5112329;28;20068;-66
2022/07/05 14:12:25;;;;;;;5.53;1.10;;;;;;;;;;5113654;28;20068;-65
2022/07/05 14:14:51;;;;;;;2.95;0.90;;;;;;;;;;5105075;28;20036;-66
2022/07/05 14:17:17;;;;;;;2.70;0.65;;;;;;;;;;5109744;28;20039;-66
2022/07/05 14:19:43;;;;;;;3.65;1.00;;;;;;;;;;5111605;27;20068;-66
2022/07/05 14:22:09;;;;;;;8.73;1.00;;;;;;;;;;5112652;28;20035;-66
2022/07/05 14:24:35;;;;;;;2.78;0.80;;;;;;;;;;5109368;28;20138;-66
2022/07/05 14:27:01;;;;;;;4.25;0.77;;;;;;;;;;5108362;28;20110;-66
2022/07/05 14:29:27;;;;;;;2.58;0.80;;;;;;;;;;5113148;28;20043;-66
2022/07/05 14:31:54;;;;;;;1.85;0.73;;;;;;;;;;5113419;28;20392;-66
2022/07/05 14:34:20;;;;;;;2.85;0.90;;;;;;;;;;5114524;28;20057;-66
2022/07/05 14:36:46;;;;;;;8.48;1.10;;;;;;;;;;5112528;28;20536;-66
2022/07/05 14:39:12;;;;;;;2.65;0.80;;;;;;;;;;5105626;28;20042;-66
2022/07/05 14:41:38;;;;;;;2.30;0.90;;;;;;;;;;5112824;28;20078;-66
2022/07/05 14:44:04;;;;;;;2.22;0.75;;;;;;;;;;5096623;28;20108;-66
2022/07/05 14:46:30;;;;;;;1.85;0.80;;;;;;;;;;5104715;28;20521;-66
2022/07/05 14:48:56;;;;;;;1.60;0.65;;;;;;;;;;5103597;28;20041;-65
2022/07/05 14:51:22;;;;;;;2.60;0.70;;;;;;;;;;5103462;28;20044;-66
2022/07/05 14:53:48;;;;;;;2.13;0.90;;;;;;;;;;5109579;27;20035;-66
2022/07/05 14:56:15;;;;;;;3.50;0.70;;;;;;;;;;5105741;28;20031;-66